Aérodrome :
LOGIN :

S'inscrire | Disclaimer

   EN    FR    IT 

 










Légende :    VFR   VFR Marginal   IFR   IFR Intensif   IFR Très Intensif
Visi : 
Plafond : 
>= 8 km
>= 3000ft
5 à 8 km
1000 à 3000 ft
1500m à 5 km
500 à 1000 ft
800 à 1500m
200 à 500 ft
< 800m
< 200 ft
Symboles :   Orages  Brouillard  Fortes neiges  Fortes précipitations  Vent > 20 kt
SIGMETs :   Divers  Orages  Givrage  Turbulence  Onde Orograph.  Cendres Volcan.






- Altitude de l'aérodrome : 376 ft


LHKE - Kecskemét

DERNIER METAR :
  • 171545Z 23004KT CAVOK 13/04 Q1019 R12/01//95 NOSIG RMK BLU

METARs EXPIRÉS :
  • 171515Z 24004KT CAVOK 14/04 Q1019 R12/01//95 NOSIG RMK BLU
  • 171445Z 24008KT CAVOK 14/03 Q1019 R12/01//95 NOSIG RMK BLU
  • 171415Z 24006KT 210V270 CAVOK 15/03 Q1019 R12/01//95 NOSIG RMK BLU
  • 171345Z 25008KT 220V280 CAVOK 15/03 Q1020 R12/01//95 NOSIG RMK BLU
  • 171315Z 22008KT 150V260 CAVOK 15/02 Q1020 R12/01//95 NOSIG RMK BLU

TAF TAF LHKE
Valide du 17 à 15h jusqu'au 18 à 00h UTC


171415Z 1715/1724 22008KT CAVOK



MET'MAP, la Météo Aéronautique d'un coup d'oeil ! - Copyright ORBIFLY Décembre 2007 - Disclaimer

ORBIFLY MET'MAP TEAM :

Programmation & Développement : Alexandra Zaïnal
Sur une idée originale de : Baudouin d'Aumeries
Assistance à la programmation : Marc-Olivier Méhu
Soutien technique & logistique : Manuel Goepfert

Contact : metmap@orbifly.com




SOURCES & CREDITS :

   NOAA